createdAt,value
2023-01-18T00:02:03.301Z,3.47
2023-01-18T00:04:30.071Z,6.57
2023-01-18T00:06:57.420Z,6.00
2023-01-18T00:09:24.098Z,5.70
2023-01-18T00:11:50.637Z,4.45
2023-01-18T00:14:17.312Z,5.40
2023-01-18T00:16:44.058Z,5.20
2023-01-18T00:19:13.431Z,4.65
2023-01-18T00:21:40.398Z,6.13
2023-01-18T00:24:11.062Z,5.25
2023-01-18T00:26:38.190Z,6.80
2023-01-18T00:29:05.328Z,3.90
2023-01-18T00:31:32.173Z,3.63
2023-01-18T00:33:58.890Z,3.20
2023-01-18T00:36:25.566Z,2.80
2023-01-18T00:38:54.075Z,2.50
2023-01-18T00:41:21.802Z,1.60
2023-01-18T00:43:48.651Z,1.60
2023-01-18T00:46:16.814Z,1.48
2023-01-18T00:48:44.313Z,1.30
2023-01-18T00:51:15.459Z,1.45
2023-01-18T00:53:44.176Z,1.25
2023-01-18T00:56:12.278Z,1.20
2023-01-18T00:58:39.041Z,1.20
2023-01-18T01:01:08.656Z,1.10
2023-01-18T01:03:54.104Z,1.00
2023-01-18T01:06:47.471Z,1.20
2023-01-18T01:09:14.256Z,1.10
2023-01-18T01:12:00.850Z,1.30
2023-01-18T01:14:46.624Z,1.30
2023-01-18T01:17:31.760Z,1.33
2023-01-18T01:20:17.276Z,1.38
2023-01-18T01:25:48.103Z,1.50
2023-01-18T01:28:14.762Z,1.27
2023-01-18T01:30:41.467Z,1.15
2023-01-18T01:33:08.236Z,1.70
2023-01-18T01:35:34.916Z,1.52
2023-01-18T01:38:01.719Z,1.05
2023-01-18T01:40:28.667Z,1.35
2023-01-18T01:42:55.593Z,1.50
2023-01-18T01:45:24.336Z,1.85
2023-01-18T01:47:51.927Z,1.60
2023-01-18T01:50:19.679Z,1.40
2023-01-18T01:52:47.462Z,1.60
2023-01-18T01:55:25.764Z,1.63
2023-01-18T01:57:55.397Z,1.45
2023-01-18T02:00:25.982Z,1.45
2023-01-18T02:03:04.770Z,1.65
2023-01-18T02:05:32.154Z,1.88
2023-01-18T02:08:00.254Z,1.73
2023-01-18T02:10:27.480Z,1.67
2023-01-18T02:12:55.288Z,2.28
2023-01-18T02:15:27.696Z,1.75
2023-01-18T02:18:10.489Z,1.70
2023-01-18T02:20:38.020Z,1.98
2023-01-18T02:23:13.738Z,1.40
2023-01-18T02:25:52.826Z,1.60
2023-01-18T02:28:24.176Z,1.65
2023-01-18T02:30:50.835Z,1.92
2023-01-18T02:33:49.833Z,1.55
2023-01-18T02:36:24.515Z,1.98
2023-01-18T02:38:55.001Z,1.98
2023-01-18T02:41:56.501Z,1.73
2023-01-18T02:44:45.726Z,1.90
2023-01-18T02:47:12.486Z,1.50
2023-01-18T02:49:39.055Z,1.40
2023-01-18T02:52:06.565Z,1.58
2023-01-18T02:54:35.907Z,1.48
2023-01-18T02:57:04.977Z,1.40
2023-01-18T02:59:34.962Z,1.40
2023-01-18T03:02:07.285Z,1.40
2023-01-18T03:04:38.191Z,1.20
2023-01-18T03:07:10.953Z,1.30
2023-01-18T03:09:38.612Z,1.05
2023-01-18T03:12:15.378Z,1.00
2023-01-18T03:14:56.597Z,1.02
2023-01-18T03:17:49.910Z,1.13
2023-01-18T03:20:18.301Z,1.10
2023-01-18T03:23:19.902Z,0.80
2023-01-18T03:25:48.171Z,1.20
2023-01-18T03:28:42.953Z,1.10
2023-01-18T03:31:32.051Z,1.00
2023-01-18T03:34:01.883Z,0.90
2023-01-18T03:36:31.635Z,1.20
2023-01-18T03:39:01.183Z,1.15
2023-01-18T03:41:30.243Z,1.20
2023-01-18T03:43:59.391Z,1.52
2023-01-18T03:46:27.967Z,1.70
2023-01-18T03:48:55.617Z,2.20
2023-01-18T03:51:37.728Z,1.80
2023-01-18T03:54:12.575Z,1.70
2023-01-18T03:56:59.427Z,1.65
2023-01-18T03:59:28.880Z,1.60
2023-01-18T04:01:55.844Z,1.63
2023-01-18T04:04:22.462Z,1.90
2023-01-18T04:06:49.136Z,1.90
2023-01-18T04:09:15.771Z,1.80
2023-01-18T04:11:42.411Z,1.77
2023-01-18T04:14:09.116Z,1.40
2023-01-18T04:16:35.629Z,1.35
2023-01-18T04:19:02.304Z,1.10
2023-01-18T04:21:28.941Z,1.38
2023-01-18T04:23:55.622Z,1.27
2023-01-18T04:26:22.131Z,1.50
2023-01-18T04:28:49.039Z,1.33
2023-01-18T04:31:15.713Z,1.10
2023-01-18T04:33:42.419Z,1.17
2023-01-18T04:36:09.703Z,1.40
2023-01-18T04:38:36.236Z,1.10
2023-01-18T04:41:06.036Z,1.13
2023-01-18T04:43:32.788Z,1.00
2023-01-18T04:45:59.464Z,0.85
2023-01-18T04:48:26.173Z,0.93
2023-01-18T04:50:53.233Z,0.73
2023-01-18T04:53:20.238Z,1.10
2023-01-18T04:55:47.057Z,1.00
2023-01-18T04:58:13.738Z,0.90
2023-01-18T05:00:40.736Z,0.90
2023-01-18T05:03:08.637Z,0.80
2023-01-18T05:05:35.294Z,0.80
2023-01-18T05:08:02.067Z,1.15
2023-01-18T05:10:28.884Z,1.02
2023-01-18T05:12:56.200Z,0.88
2023-01-18T05:15:23.165Z,1.23
2023-01-18T05:17:50.143Z,0.70
2023-01-18T05:20:16.750Z,0.52
2023-01-18T05:22:43.300Z,0.82
2023-01-18T05:25:09.979Z,0.95
2023-01-18T05:27:37.281Z,0.95
2023-01-18T05:30:06.579Z,0.80
2023-01-18T05:32:33.535Z,0.90
2023-01-18T05:35:00.087Z,1.20
2023-01-18T05:37:26.852Z,2.17
2023-01-18T05:39:53.507Z,2.70
2023-01-18T05:42:20.283Z,3.03
2023-01-18T05:44:47.020Z,2.70
2023-01-18T05:47:13.791Z,2.58
2023-01-18T05:49:41.938Z,2.80
2023-01-18T05:52:08.751Z,2.50
2023-01-18T05:54:35.364Z,3.08
2023-01-18T05:57:02.225Z,2.75
2023-01-18T05:59:28.932Z,2.65
2023-01-18T06:01:55.734Z,2.65
2023-01-18T06:04:22.725Z,3.00
2023-01-18T06:06:49.413Z,3.05
2023-01-18T06:09:16.066Z,2.72
2023-01-18T06:11:42.642Z,3.10
2023-01-18T06:14:09.146Z,3.80
2023-01-18T06:16:35.902Z,3.00
2023-01-18T06:19:02.650Z,3.30
2023-01-18T06:21:29.284Z,3.13
2023-01-18T06:23:55.950Z,3.20
2023-01-18T06:26:24.108Z,2.75
2023-01-18T06:28:50.641Z,3.47
2023-01-18T06:31:19.847Z,2.83
2023-01-18T06:33:46.484Z,2.90
2023-01-18T06:36:13.273Z,2.90
2023-01-18T06:38:40.251Z,2.85
2023-01-18T06:41:07.083Z,3.42
2023-01-18T06:43:33.639Z,2.90
2023-01-18T06:46:00.334Z,2.88
2023-01-18T06:48:27.654Z,3.25
2023-01-18T06:50:56.765Z,3.22
2023-01-18T06:53:24.784Z,2.97
2023-01-18T06:56:00.831Z,3.03
2023-01-18T06:58:27.991Z,3.35
2023-01-18T07:00:58.647Z,3.15
2023-01-18T07:03:26.286Z,3.13
2023-01-18T07:05:53.953Z,3.33
2023-01-18T07:08:21.350Z,3.40
2023-01-18T07:10:48.621Z,4.00
2023-01-18T07:13:15.679Z,3.95
2023-01-18T07:15:42.304Z,3.60
2023-01-18T07:18:08.876Z,3.92
2023-01-18T07:20:35.575Z,4.05
2023-01-18T07:23:02.808Z,4.18
2023-01-18T07:25:32.321Z,3.90
2023-01-18T07:27:58.939Z,3.90
2023-01-18T07:30:25.796Z,3.75
2023-01-18T07:32:53.237Z,4.28
2023-01-18T07:35:22.250Z,4.45
2023-01-18T07:37:55.391Z,3.80
2023-01-18T07:40:22.486Z,4.70
2023-01-18T07:42:50.078Z,4.63
2023-01-18T07:45:17.089Z,4.25
2023-01-18T07:47:46.244Z,4.07
2023-01-18T07:50:14.414Z,4.00
2023-01-18T07:52:41.160Z,4.28
2023-01-18T07:55:07.882Z,4.13
2023-01-18T07:57:34.561Z,4.43
2023-01-18T08:00:01.445Z,4.30
2023-01-18T08:02:28.229Z,4.07
2023-01-18T08:04:54.968Z,4.43
2023-01-18T10:28:39.856Z,3.13
2023-01-18T10:31:15.956Z,3.38
2023-01-18T10:33:43.821Z,3.20
2023-01-18T10:36:16.758Z,2.78
2023-01-18T10:38:43.920Z,3.58
2023-01-18T10:45:20.349Z,3.20
2023-01-18T10:47:47.951Z,3.13
2023-01-18T10:50:22.645Z,3.25
2023-01-18T10:52:49.747Z,3.35
2023-01-18T10:55:17.438Z,2.80
2023-01-18T10:57:46.617Z,2.67
2023-01-18T11:00:21.494Z,2.60
2023-01-18T11:05:32.214Z,3.38
2023-01-18T11:08:37.395Z,2.50
2023-01-18T11:11:14.898Z,2.80
2023-01-18T11:13:50.704Z,2.78
2023-01-18T11:16:18.785Z,2.70
2023-01-18T11:19:04.965Z,2.60
2023-01-18T11:21:43.660Z,2.38
2023-01-18T11:24:15.516Z,2.55
2023-01-18T11:26:54.308Z,3.10
2023-01-18T11:29:22.493Z,2.83
2023-01-18T11:31:50.115Z,2.70
2023-01-18T11:34:26.587Z,2.55
2023-01-18T11:36:53.669Z,2.30
2023-01-18T11:39:23.182Z,2.75
2023-01-18T11:41:50.235Z,2.20
2023-01-18T11:44:25.300Z,2.40
2023-01-18T11:49:38.837Z,1.98
2023-01-18T11:52:24.271Z,2.00
2023-01-18T11:57:17.629Z,2.20
2023-01-18T11:59:46.254Z,1.90
2023-01-18T12:02:31.668Z,3.78
2023-01-18T12:07:35.722Z,2.58
2023-01-18T12:57:00.995Z,2.50
2023-01-18T12:59:31.003Z,2.67
2023-01-18T13:02:04.995Z,2.35
2023-01-18T13:04:43.114Z,2.22
2023-01-18T13:07:13.019Z,1.67
2023-01-18T13:09:41.800Z,2.17
2023-01-18T13:12:08.462Z,2.45
2023-01-18T13:14:43.666Z,2.25
2023-01-18T13:17:10.928Z,2.25
2023-01-18T13:19:43.020Z,2.45
2023-01-18T13:22:15.924Z,2.42
2023-01-18T13:25:02.754Z,2.50
2023-01-18T13:27:31.477Z,2.30
2023-01-18T13:30:06.336Z,2.20
2023-01-18T13:37:50.160Z,2.00
2023-01-18T13:40:48.148Z,1.75
2023-01-18T13:46:18.497Z,2.15
2023-01-18T13:53:17.213Z,1.88
2023-01-18T13:59:54.082Z,1.75
2023-01-18T14:07:11.680Z,0.88
2023-01-18T14:13:54.760Z,1.35
2023-01-18T14:16:38.629Z,1.20
2023-01-18T14:29:28.722Z,1.10
2023-01-18T16:00:14.293Z,1.63
2023-01-18T16:07:17.555Z,1.38
2023-01-18T16:19:24.849Z,1.30
2023-01-18T16:32:23.282Z,1.75
2023-01-18T16:34:50.096Z,1.70
2023-01-18T16:37:18.368Z,1.50
2023-01-18T16:39:45.372Z,1.80
2023-01-18T16:42:13.083Z,1.80
2023-01-18T16:44:41.593Z,2.38
2023-01-18T16:47:10.741Z,2.03
2023-01-18T16:49:39.160Z,1.58
2023-01-18T16:52:08.377Z,1.75
2023-01-18T16:54:35.250Z,2.10
2023-01-18T16:57:01.929Z,2.65
2023-01-18T16:59:28.643Z,1.80
2023-01-18T17:01:55.739Z,2.17
2023-01-18T17:04:22.558Z,2.25
2023-01-18T17:06:49.332Z,2.33
2023-01-18T17:09:20.451Z,1.70
2023-01-18T17:11:47.778Z,1.83
2023-01-18T17:14:14.445Z,2.05
2023-01-18T17:16:43.191Z,1.80
2023-01-18T17:19:11.704Z,1.80
2023-01-18T17:21:38.323Z,1.98
2023-01-18T17:24:05.793Z,2.20
2023-01-18T17:26:32.571Z,2.70
2023-01-18T17:28:59.122Z,2.15
2023-01-18T17:31:26.176Z,2.30
2023-01-18T17:33:52.885Z,2.60
2023-01-18T17:36:19.708Z,4.20
2023-01-18T17:38:46.354Z,5.65
2023-01-18T17:41:27.680Z,2.75
2023-01-18T17:43:55.122Z,2.15
2023-01-18T17:46:21.767Z,2.30
2023-01-18T17:48:48.487Z,2.20
2023-01-18T17:51:15.224Z,2.50
2023-01-18T17:53:42.174Z,3.10
2023-01-18T17:56:12.860Z,3.08
2023-01-18T17:58:40.017Z,2.38
2023-01-18T18:01:06.869Z,2.50
2023-01-18T18:03:33.767Z,2.50
2023-01-18T18:06:01.366Z,2.78
2023-01-18T18:08:28.236Z,2.33
2023-01-18T18:10:55.653Z,3.10
2023-01-18T18:13:23.250Z,2.92
2023-01-18T18:15:49.925Z,3.30
2023-01-18T18:18:24.182Z,2.25
2023-01-18T18:20:56.436Z,2.78
2023-01-18T18:23:23.519Z,2.90
2023-01-18T18:25:50.385Z,2.72
2023-01-18T18:28:17.523Z,3.53
2023-01-18T18:30:49.282Z,2.63
2023-01-18T18:33:16.300Z,2.70
2023-01-18T18:35:43.055Z,3.03
2023-01-18T18:38:09.690Z,3.85
2023-01-18T18:40:36.215Z,2.50
2023-01-18T18:43:03.389Z,3.08
2023-01-18T18:45:30.701Z,3.75
2023-01-18T18:47:57.268Z,2.40
2023-01-18T18:50:23.891Z,2.00
2023-01-18T18:52:50.506Z,3.08
2023-01-18T18:55:17.628Z,3.55
2023-01-18T18:57:44.521Z,2.97
2023-01-18T19:00:11.500Z,2.50
2023-01-18T19:02:38.286Z,2.50
2023-01-18T19:05:06.850Z,2.50
2023-01-18T19:07:38.226Z,2.00
2023-01-18T19:10:05.714Z,2.85
2023-01-18T19:12:32.588Z,2.83
2023-01-18T19:14:59.470Z,2.45
2023-01-18T19:17:30.653Z,1.67
2023-01-18T19:19:58.010Z,2.55
2023-01-18T19:22:24.779Z,1.98
2023-01-18T19:24:51.805Z,1.90
2023-01-18T19:27:18.481Z,2.65
2023-01-18T19:29:45.235Z,3.35
2023-01-18T19:32:11.688Z,3.58
2023-01-18T19:34:38.721Z,2.50
2023-01-18T19:37:06.296Z,7.97
2023-01-18T19:39:35.742Z,3.88
2023-01-18T19:42:02.522Z,2.17
2023-01-18T19:44:29.367Z,2.88
2023-01-18T19:46:57.206Z,4.47
2023-01-18T19:49:25.936Z,3.40
2023-01-18T19:51:52.921Z,4.65
2023-01-18T19:54:19.775Z,2.88
2023-01-18T19:56:46.770Z,2.80
2023-01-18T19:59:15.002Z,4.15
2023-01-18T20:01:41.772Z,1.70
2023-01-18T20:04:08.827Z,1.92
2023-01-18T20:06:38.455Z,2.00
2023-01-18T20:09:17.760Z,2.53
2023-01-18T20:11:45.581Z,2.75
2023-01-18T20:14:16.030Z,1.83
2023-01-18T20:16:44.920Z,1.65
2023-01-18T20:19:13.200Z,2.75
2023-01-18T20:21:39.814Z,1.83
2023-01-18T20:24:06.608Z,2.50
2023-01-18T20:26:36.981Z,2.13
2023-01-18T20:29:07.138Z,1.90
2023-01-18T20:31:34.776Z,1.58
2023-01-18T20:34:01.526Z,1.80
2023-01-18T20:36:28.062Z,2.50
2023-01-18T20:38:54.956Z,1.90
2023-01-18T20:41:21.537Z,1.70
2023-01-18T20:43:48.577Z,1.77
2023-01-18T20:46:15.304Z,1.65
2023-01-18T20:48:42.157Z,1.55
2023-01-18T20:51:11.658Z,2.50
2023-01-18T20:53:38.381Z,1.60
2023-01-18T20:56:19.998Z,1.67
2023-01-18T20:58:54.118Z,1.48
2023-01-18T21:01:21.024Z,2.63
2023-01-18T21:03:52.365Z,1.50
2023-01-18T21:06:19.241Z,3.85
2023-01-18T21:08:45.906Z,2.65
2023-01-18T21:11:16.998Z,2.38
2023-01-18T21:13:45.137Z,2.20
2023-01-18T21:16:11.881Z,2.00
2023-01-18T21:18:39.717Z,1.80
2023-01-18T21:21:06.795Z,2.28
2023-01-18T21:23:47.250Z,2.50
2023-01-18T21:29:25.481Z,2.50
2023-01-18T21:32:37.925Z,2.65
2023-01-18T21:35:25.775Z,1.75
2023-01-18T21:38:11.705Z,1.88
2023-01-18T21:40:43.255Z,1.50
2023-01-18T21:43:40.917Z,2.55
2023-01-18T21:46:21.815Z,1.95
2023-01-18T21:48:52.527Z,2.13
2023-01-18T21:51:41.705Z,2.35
2023-01-18T21:54:32.167Z,2.63
2023-01-18T21:57:18.932Z,2.72
2023-01-18T22:05:29.136Z,2.90
2023-01-18T22:07:55.783Z,2.38
2023-01-18T22:10:24.877Z,1.70
2023-01-18T22:15:47.814Z,1.70
2023-01-18T22:21:45.902Z,1.52
2023-01-18T22:30:21.755Z,2.30
2023-01-18T22:38:37.133Z,2.00
2023-01-18T22:41:07.809Z,2.08
2023-01-18T22:44:16.007Z,2.00
2023-01-18T22:47:10.660Z,2.00
2023-01-18T22:49:38.252Z,1.80
2023-01-18T22:52:04.898Z,4.68
2023-01-18T22:54:31.566Z,5.00
2023-01-18T22:56:58.326Z,3.45
2023-01-18T22:59:25.228Z,9.68
2023-01-18T23:01:51.823Z,6.47
2023-01-18T23:04:19.004Z,9.65
2023-01-18T23:06:48.179Z,6.32
2023-01-18T23:09:15.815Z,3.83
2023-01-18T23:11:42.369Z,6.03
2023-01-18T23:14:27.499Z,4.18
2023-01-18T23:17:12.633Z,7.55
2023-01-18T23:19:39.257Z,4.78
2023-01-18T23:22:07.494Z,5.35
2023-01-18T23:24:35.564Z,2.88
2023-01-18T23:27:02.421Z,7.60
2023-01-18T23:29:29.165Z,6.90
2023-01-18T23:32:05.547Z,4.53
2023-01-18T23:34:35.371Z,2.58
2023-01-18T23:37:02.065Z,5.47
2023-01-18T23:39:47.106Z,8.35
2023-01-18T23:42:32.287Z,5.03
2023-01-18T23:45:17.768Z,3.67
2023-01-18T23:48:03.488Z,5.93
2023-01-18T23:50:48.669Z,8.65
2023-01-18T23:53:33.786Z,8.23
2023-01-18T23:56:00.403Z,5.30
2023-01-18T23:58:26.948Z,7.68
